createdAt,value
2023-01-10T00:00:02.965Z,4.19
2023-01-10T00:04:20.589Z,4.18
2023-01-10T00:08:38.414Z,4.19
2023-01-10T00:13:14.636Z,4.16
2023-01-10T00:17:32.352Z,4.15
2023-01-10T00:21:50.487Z,4.12
2023-01-10T00:26:08.067Z,4.26
2023-01-10T00:30:25.779Z,4.27
2023-01-10T00:34:43.261Z,4.29
2023-01-10T00:39:00.998Z,4.25
2023-01-10T00:43:38.284Z,4.29
2023-01-10T00:47:56.045Z,4.18
2023-01-10T00:52:13.900Z,4.15
2023-01-10T00:56:31.456Z,4.12
2023-01-10T01:00:50.351Z,4.06
2023-01-10T01:05:08.505Z,4.18
2023-01-10T01:09:26.149Z,4.16
2023-01-10T01:13:43.705Z,4.27
2023-01-10T01:18:02.072Z,4.25
2023-01-10T01:22:20.431Z,4.22
2023-01-10T01:26:38.204Z,4.23
2023-01-10T01:30:55.793Z,4.30
2023-01-10T01:35:16.661Z,4.34
2023-01-10T01:39:34.182Z,4.34
2023-01-10T01:44:16.877Z,4.37
2023-01-10T01:48:41.795Z,4.36
2023-01-10T01:53:03.054Z,4.34
2023-01-10T01:57:25.713Z,4.36
2023-01-10T02:01:46.753Z,4.36
2023-01-10T02:06:04.792Z,4.32
2023-01-10T02:10:48.821Z,4.29
2023-01-10T02:15:07.488Z,4.29
2023-01-10T02:19:38.982Z,4.29
2023-01-10T02:24:36.552Z,4.29
2023-01-10T02:29:26.083Z,4.27
2023-01-10T02:34:04.749Z,4.26
2023-01-10T02:38:32.569Z,4.29
2023-01-10T02:43:00.959Z,4.26
2023-01-10T02:47:19.299Z,4.23
2023-01-10T02:51:37.028Z,4.25
2023-01-10T02:56:12.793Z,4.25
2023-01-10T03:00:48.568Z,4.27
2023-01-10T03:05:46.740Z,4.23
2023-01-10T03:10:10.045Z,4.19
2023-01-10T03:14:29.571Z,4.20
2023-01-10T03:19:04.626Z,4.18
2023-01-10T03:23:23.495Z,4.20
2023-01-10T03:28:13.629Z,4.20
2023-01-10T03:32:32.999Z,4.22
2023-01-10T03:37:07.341Z,4.22
2023-01-10T03:41:41.325Z,4.23
2023-01-10T03:46:09.303Z,4.19
2023-01-10T03:50:28.505Z,4.20
2023-01-10T03:54:48.172Z,4.25
2023-01-10T03:59:05.685Z,4.23
2023-01-10T04:03:24.716Z,4.20
2023-01-10T04:07:42.439Z,4.19
2023-01-10T04:12:00.181Z,4.13
2023-01-10T04:16:17.840Z,4.09
2023-01-10T04:20:35.355Z,4.09
2023-01-10T04:24:54.177Z,4.06
2023-01-10T04:29:11.731Z,3.99
2023-01-10T04:33:29.547Z,3.94
2023-01-10T04:37:47.037Z,3.92
2023-01-10T04:42:04.758Z,3.91
2023-01-10T04:46:22.269Z,3.87
2023-01-10T04:50:39.926Z,3.85
2023-01-10T04:54:57.547Z,3.84
2023-01-10T04:59:16.057Z,3.81
2023-01-10T05:03:33.524Z,3.74
2023-01-10T05:07:51.582Z,3.75
2023-01-10T05:12:09.324Z,3.70
2023-01-10T05:16:27.844Z,3.64
2023-01-10T05:20:45.554Z,3.64
2023-01-10T05:25:03.196Z,3.63
2023-01-10T05:29:21.218Z,3.57
2023-01-10T05:33:39.185Z,3.56
2023-01-10T05:37:56.914Z,3.54
2023-01-10T05:42:14.551Z,3.56
2023-01-10T05:46:32.286Z,3.56
2023-01-10T05:50:51.106Z,3.59
2023-01-10T05:55:08.901Z,3.59
2023-01-10T05:59:28.292Z,3.60
2023-01-10T06:03:47.311Z,3.60
2023-01-10T06:08:05.094Z,3.59
2023-01-10T06:12:22.801Z,3.61
2023-01-10T06:16:41.859Z,3.60
2023-01-10T06:20:59.621Z,3.61
2023-01-10T06:25:17.398Z,3.63
2023-01-10T06:29:35.393Z,3.64
2023-01-10T06:33:53.229Z,3.63
2023-01-10T06:38:10.705Z,3.63
2023-01-10T06:42:29.052Z,3.66
2023-01-10T06:46:46.742Z,3.64
2023-01-10T06:51:06.525Z,3.63
2023-01-10T06:55:25.320Z,3.60
2023-01-10T06:59:42.963Z,3.63
2023-01-10T07:04:00.498Z,3.60
2023-01-10T07:08:18.208Z,3.60
2023-01-10T07:12:35.880Z,3.63
2023-01-10T07:16:53.498Z,3.70
2023-01-10T07:21:12.009Z,3.71
2023-01-10T07:25:30.458Z,3.73
2023-01-10T07:29:48.211Z,3.77
2023-01-10T07:34:05.760Z,3.80
2023-01-10T07:38:23.854Z,3.84
2023-01-10T07:42:41.450Z,3.82
2023-01-10T07:46:59.439Z,3.87
2023-01-10T07:51:17.275Z,3.91
2023-01-10T07:55:39.060Z,3.95
2023-01-10T07:59:56.792Z,3.97
2023-01-10T08:04:14.363Z,4.01
2023-01-10T08:08:35.307Z,3.98
2023-01-10T08:12:52.957Z,4.02
2023-01-10T08:17:10.717Z,3.98
2023-01-10T08:21:28.147Z,4.02
2023-01-10T08:25:46.297Z,4.02
2023-01-10T08:30:06.137Z,4.06
2023-01-10T08:34:24.141Z,4.06
2023-01-10T08:38:42.188Z,4.09
2023-01-10T08:43:02.531Z,4.13
2023-01-10T08:47:20.393Z,4.15
2023-01-10T08:51:38.137Z,4.10
2023-01-10T08:55:55.852Z,4.13
2023-01-10T09:00:14.058Z,4.30
2023-01-10T09:04:33.077Z,4.20
2023-01-10T09:08:51.132Z,4.29
2023-01-10T09:13:09.968Z,4.26
2023-01-10T09:17:27.571Z,4.30
2023-01-10T09:21:45.247Z,4.26
2023-01-10T09:26:03.552Z,4.26
2023-01-10T09:30:21.579Z,4.26
2023-01-10T09:34:39.138Z,4.30
2023-01-10T09:38:56.868Z,4.23
2023-01-10T09:43:54.804Z,4.23
2023-01-10T09:48:41.323Z,4.25
2023-01-10T09:53:25.138Z,4.34
2023-01-10T09:57:42.769Z,4.32
2023-01-10T10:02:17.277Z,4.23
2023-01-10T10:06:34.874Z,4.25
2023-01-10T10:11:27.239Z,4.40
2023-01-10T10:16:02.639Z,4.41
2023-01-10T10:20:54.168Z,4.37
2023-01-10T10:26:11.484Z,4.26
2023-01-10T10:30:53.506Z,4.27
2023-01-10T10:35:37.301Z,4.30
2023-01-10T10:39:59.360Z,4.34
2023-01-10T10:44:55.309Z,4.30
2023-01-10T10:49:49.368Z,4.47
2023-01-10T10:54:12.375Z,4.52
2023-01-10T10:58:32.185Z,4.49
2023-01-10T11:03:04.826Z,4.45
2023-01-10T11:07:22.695Z,4.56
2023-01-10T11:11:47.719Z,4.58
2023-01-10T11:16:07.153Z,4.58
2023-01-10T11:20:25.008Z,4.45
2023-01-10T11:24:56.717Z,4.46
2023-01-10T11:29:19.948Z,4.45
2023-01-10T11:33:39.995Z,4.43
2023-01-10T11:38:22.366Z,4.45
2023-01-10T11:42:40.242Z,4.39
2023-01-10T11:47:03.117Z,4.49
2023-01-10T11:51:28.620Z,4.50
2023-01-10T11:55:48.501Z,4.43
2023-01-10T12:00:09.810Z,4.39
2023-01-10T12:04:31.468Z,4.47
2023-01-10T12:08:50.553Z,4.36
2023-01-10T12:13:16.254Z,4.34
2023-01-10T12:17:38.033Z,4.40
2023-01-10T12:22:02.796Z,4.47
2023-01-10T12:26:21.880Z,4.49
2023-01-10T12:30:44.577Z,4.52
2023-01-10T12:35:10.617Z,4.50
2023-01-10T12:39:39.137Z,4.61
2023-01-10T12:44:12.527Z,4.63
2023-01-10T12:48:52.712Z,4.60
2023-01-10T12:53:44.073Z,4.54
2023-01-10T12:58:05.331Z,4.54
2023-01-10T13:02:27.087Z,4.45
2023-01-10T13:06:45.199Z,4.40
2023-01-10T13:11:05.565Z,4.36
2023-01-10T13:15:36.915Z,4.32
2023-01-10T13:20:16.570Z,4.32
2023-01-10T13:24:34.480Z,4.33
2023-01-10T13:29:01.157Z,4.30
2023-01-10T13:33:49.997Z,4.29
2023-01-10T13:38:21.016Z,4.29
2023-01-10T13:42:57.486Z,4.27
2023-01-10T13:47:40.671Z,4.26
2023-01-10T13:52:29.272Z,4.22
2023-01-10T13:56:46.783Z,4.25
2023-01-10T14:01:23.743Z,4.29
2023-01-10T14:05:48.782Z,4.22
2023-01-10T14:10:10.919Z,4.20
2023-01-10T14:14:41.193Z,4.20
2023-01-10T14:18:59.781Z,4.18
2023-01-10T14:23:21.862Z,4.15
2023-01-10T14:27:49.422Z,4.16
2023-01-10T14:32:28.034Z,4.06
2023-01-10T14:36:55.483Z,4.09
2023-01-10T14:41:23.212Z,4.06
2023-01-10T14:46:03.226Z,3.99
2023-01-10T14:50:32.772Z,4.01
2023-01-10T14:55:09.482Z,3.95
2023-01-10T14:59:32.144Z,3.91
2023-01-10T15:03:50.173Z,3.94
2023-01-10T15:08:26.673Z,3.91
2023-01-10T15:12:45.429Z,3.85
2023-01-10T15:17:06.411Z,3.85
2023-01-10T15:21:26.029Z,3.82
2023-01-10T15:25:44.825Z,3.80
2023-01-10T15:30:02.262Z,3.75
2023-01-10T15:34:23.637Z,3.80
2023-01-10T15:38:46.767Z,3.77
2023-01-10T15:43:34.313Z,3.75
2023-01-10T15:47:54.848Z,3.75
2023-01-10T15:52:30.632Z,3.75
2023-01-10T15:57:01.473Z,3.75
2023-01-10T16:01:19.262Z,3.78
2023-01-10T16:05:37.044Z,3.78
2023-01-10T16:10:07.863Z,3.78
2023-01-10T16:14:26.500Z,3.82
2023-01-10T16:18:44.049Z,3.87
2023-01-10T16:23:03.962Z,3.87
2023-01-10T16:27:21.579Z,3.91
2023-01-10T16:31:39.823Z,3.94
2023-01-10T16:36:00.264Z,3.94
2023-01-10T16:40:24.983Z,3.98
2023-01-10T16:44:43.127Z,3.98
2023-01-10T16:49:01.100Z,3.97
2023-01-10T16:53:20.547Z,3.95
2023-01-10T16:57:38.164Z,3.99
2023-01-10T17:01:58.579Z,3.97
2023-01-10T17:06:16.723Z,3.95
2023-01-10T17:10:36.629Z,3.92
2023-01-10T17:14:54.174Z,3.92
2023-01-10T17:19:11.876Z,3.92
2023-01-10T17:23:29.770Z,3.91
2023-01-10T17:27:47.544Z,3.91
2023-01-10T17:32:05.640Z,3.89
2023-01-10T17:36:28.735Z,3.88
2023-01-10T17:40:47.666Z,3.88
2023-01-10T17:45:09.331Z,3.89
2023-01-10T17:49:27.001Z,3.87
2023-01-10T17:53:44.892Z,3.88
2023-01-10T17:58:05.813Z,3.84
2023-01-10T18:02:23.656Z,3.85
2023-01-10T18:06:41.674Z,3.85
2023-01-10T18:11:00.918Z,3.85
2023-01-10T18:15:18.568Z,3.85
2023-01-10T18:19:36.620Z,3.84
2023-01-10T18:23:59.505Z,3.84
2023-01-10T18:28:18.724Z,3.75
2023-01-10T18:32:37.735Z,3.80
2023-01-10T18:36:55.441Z,3.80
2023-01-10T18:41:14.935Z,3.82
2023-01-10T18:45:32.603Z,3.84
2023-01-10T18:49:50.854Z,3.80
2023-01-10T18:54:08.820Z,3.82
2023-01-10T18:58:30.203Z,3.84
2023-01-10T19:02:48.365Z,3.84
2023-01-10T19:07:06.153Z,3.80
2023-01-10T19:11:23.968Z,3.81
2023-01-10T19:15:41.549Z,3.85
2023-01-10T19:19:59.146Z,3.77
2023-01-10T19:24:27.473Z,3.78
2023-01-10T19:28:45.886Z,3.74
2023-01-10T19:33:03.942Z,3.64
2023-01-10T19:37:21.673Z,3.66
2023-01-10T19:41:40.593Z,3.66
2023-01-10T19:45:58.509Z,3.59
2023-01-10T19:50:17.149Z,3.49
2023-01-10T19:54:34.911Z,3.56
2023-01-10T19:58:55.068Z,3.56
2023-01-10T20:03:14.064Z,3.60
2023-01-10T20:07:31.854Z,3.53
2023-01-10T20:11:49.498Z,3.54
2023-01-10T20:16:07.675Z,3.54
2023-01-10T20:20:25.285Z,3.54
2023-01-10T20:24:43.230Z,3.49
2023-01-10T20:29:02.860Z,3.49
2023-01-10T20:33:27.024Z,3.54
2023-01-10T20:37:44.577Z,3.44
2023-01-10T20:42:02.356Z,3.42
2023-01-10T20:46:29.748Z,3.36
2023-01-10T20:50:47.670Z,3.40
2023-01-10T20:55:06.169Z,3.44
2023-01-10T20:59:25.891Z,3.49
2023-01-10T21:03:45.772Z,3.39
2023-01-10T21:08:03.769Z,3.18
2023-01-10T21:12:23.186Z,3.39
2023-01-10T21:16:41.655Z,3.44
2023-01-10T21:21:00.351Z,3.47
2023-01-10T21:25:17.844Z,3.42
2023-01-10T21:29:35.710Z,2.92
2023-01-10T21:33:54.225Z,2.33
2023-01-10T21:38:11.982Z,2.08
2023-01-10T21:42:35.445Z,1.91
2023-01-10T21:46:53.241Z,2.13
2023-01-10T21:51:11.043Z,2.46
2023-01-10T21:55:29.129Z,2.63
2023-01-10T21:59:46.705Z,2.75
2023-01-10T22:04:05.782Z,2.80
2023-01-10T22:08:24.129Z,2.92
2023-01-10T22:12:41.838Z,2.96
2023-01-10T22:16:59.357Z,3.02
2023-01-10T22:21:19.984Z,3.04
2023-01-10T22:25:37.593Z,3.09
2023-01-10T22:29:55.640Z,3.12
2023-01-10T22:34:44.601Z,3.15
2023-01-10T22:39:20.782Z,3.22
2023-01-10T22:43:57.636Z,3.27
2023-01-10T22:48:38.462Z,3.25
2023-01-10T22:53:08.876Z,3.15
2023-01-10T22:57:47.450Z,3.12
2023-01-10T23:02:20.401Z,3.13
2023-01-10T23:06:57.112Z,3.15
2023-01-10T23:11:33.064Z,3.12
2023-01-10T23:16:15.566Z,3.06
2023-01-10T23:20:48.518Z,2.99
2023-01-10T23:25:21.130Z,2.98
2023-01-10T23:29:57.300Z,2.89
2023-01-10T23:34:33.205Z,2.85
2023-01-10T23:39:09.718Z,2.83
2023-01-10T23:43:45.517Z,2.77
2023-01-10T23:48:22.195Z,2.81
2023-01-10T23:52:58.172Z,2.88
2023-01-10T23:57:34.553Z,2.88
